sensor_id;sensor_type;location;lat;lon;timestamp;pressure;altitude;pressure_sealevel;temperature;humidity
44920;BME280;30655;53.094;6.072;2022-08-20T00:07:01;101583.13;;;20.06;83.92
44920;BME280;30655;53.094;6.072;2022-08-20T00:17:13;101450.91;;;19.06;84.91
44920;BME280;30655;53.094;6.072;2022-08-20T00:23:32;101596.56;;;20.07;85.03
44920;BME280;30655;53.094;6.072;2022-08-20T00:26:58;101514.63;;;19.48;85.23
44920;BME280;30655;53.094;6.072;2022-08-20T00:29:55;101608.69;;;20.15;85.06
44920;BME280;30655;53.094;6.072;2022-08-20T00:33:05;101518.16;;;19.48;85.01
44920;BME280;30655;53.094;6.072;2022-08-20T00:35:49;101470.16;;;19.15;85.21
44920;BME280;30655;53.094;6.072;2022-08-20T00:45:18;101461.47;;;18.99;85.47
44920;BME280;30655;53.094;6.072;2022-08-20T00:47:59;101626.91;;;19.89;86.21
44920;BME280;30655;53.094;6.072;2022-08-20T00:50:48;101436.78;;;18.77;85.48
44920;BME280;30655;53.094;6.072;2022-08-20T00:53:46;101586.69;;;19.62;85.64
44920;BME280;30655;53.094;6.072;2022-08-20T00:56:51;101613.75;;;19.77;85.98
44920;BME280;30655;53.094;6.072;2022-08-20T00:59:55;101580.00;;;19.41;86.33
44920;BME280;30655;53.094;6.072;2022-08-20T01:02:45;101627.25;;;19.73;86.41
44920;BME280;30655;53.094;6.072;2022-08-20T01:05:36;101440.97;;;18.47;86.41
44920;BME280;30655;53.094;6.072;2022-08-20T01:08:29;101455.66;;;18.65;86.50
44920;BME280;30655;53.094;6.072;2022-08-20T01:14:44;101558.84;;;19.19;86.66
44920;BME280;30655;53.094;6.072;2022-08-20T01:20:53;101579.13;;;19.18;86.94
44920;BME280;30655;53.094;6.072;2022-08-20T01:27:14;101638.41;;;19.55;87.23
44920;BME280;30655;53.094;6.072;2022-08-20T01:36:52;101568.50;;;19.16;87.47
44920;BME280;30655;53.094;6.072;2022-08-20T01:40:20;101626.31;;;19.56;87.46
44920;BME280;30655;53.094;6.072;2022-08-20T01:42:51;101493.41;;;18.68;87.70
44920;BME280;30655;53.094;6.072;2022-08-20T01:52:42;101582.16;;;19.30;87.19
44920;BME280;30655;53.094;6.072;2022-08-20T01:55:32;101587.56;;;19.21;87.22
44920;BME280;30655;53.094;6.072;2022-08-20T02:01:48;101443.91;;;18.10;87.48
44920;BME280;30655;53.094;6.072;2022-08-20T02:04:43;101629.88;;;19.29;87.58
44920;BME280;30655;53.094;6.072;2022-08-20T02:10:44;101537.44;;;18.58;87.44
44920;BME280;30655;53.094;6.072;2022-08-20T02:13:57;101463.16;;;18.04;87.39
44920;BME280;30655;53.094;6.072;2022-08-20T02:16:39;101637.22;;;19.06;87.78
44920;BME280;30655;53.094;6.072;2022-08-20T02:19:39;101638.84;;;19.07;87.55
44920;BME280;30655;53.094;6.072;2022-08-20T02:22:45;101467.91;;;17.99;87.30
44920;BME280;30655;53.094;6.072;2022-08-20T02:25:36;101585.91;;;18.71;87.72
44920;BME280;30655;53.094;6.072;2022-08-20T02:35:28;101469.22;;;17.88;87.86
44920;BME280;30655;53.094;6.072;2022-08-20T02:41:12;101496.41;;;18.25;87.71
44920;BME280;30655;53.094;6.072;2022-08-20T02:43:52;101641.28;;;19.09;87.29
44920;BME280;30655;53.094;6.072;2022-08-20T02:46:27;101467.19;;;17.93;86.74
44920;BME280;30655;53.094;6.072;2022-08-20T02:50:21;101516.88;;;18.14;86.70
44920;BME280;30655;53.094;6.072;2022-08-20T02:56:14;101660.97;;;18.97;85.67
44920;BME280;30655;53.094;6.072;2022-08-20T02:59:22;101639.06;;;18.97;85.42
44920;BME280;30655;53.094;6.072;2022-08-20T03:02:33;101477.72;;;17.86;85.04
44920;BME280;30655;53.094;6.072;2022-08-20T03:05:34;101608.63;;;18.71;84.30
44920;BME280;30655;53.094;6.072;2022-08-20T03:08:31;101489.78;;;17.85;84.14
44920;BME280;30655;53.094;6.072;2022-08-20T03:12:03;101466.03;;;17.67;83.26
44920;BME280;30655;53.094;6.072;2022-08-20T03:14:50;101614.19;;;18.66;82.97
44920;BME280;30655;53.094;6.072;2022-08-20T03:17:57;101577.72;;;18.38;82.13
44920;BME280;30655;53.094;6.072;2022-08-20T03:20:34;101641.09;;;18.78;82.33
44920;BME280;30655;53.094;6.072;2022-08-20T03:26:56;101643.69;;;18.69;81.62
44920;BME280;30655;53.094;6.072;2022-08-20T03:30:09;101594.84;;;18.30;81.37
44920;BME280;30655;53.094;6.072;2022-08-20T03:33:22;101617.47;;;18.49;81.28
44920;BME280;30655;53.094;6.072;2022-08-20T03:36:48;101508.28;;;17.75;81.42
44920;BME280;30655;53.094;6.072;2022-08-20T03:42:33;101608.78;;;18.47;80.80
44920;BME280;30655;53.094;6.072;2022-08-20T03:45:25;101490.94;;;17.66;80.46
44920;BME280;30655;53.094;6.072;2022-08-20T03:48:43;101492.47;;;17.72;80.23
44920;BME280;30655;53.094;6.072;2022-08-20T03:54:30;101657.09;;;18.71;80.07
44920;BME280;30655;53.094;6.072;2022-08-20T04:00:37;101485.41;;;17.52;79.28
44920;BME280;30655;53.094;6.072;2022-08-20T04:03:45;101663.78;;;18.65;79.41
44920;BME280;30655;53.094;6.072;2022-08-20T04:09:32;101633.25;;;18.39;78.95
44920;BME280;30655;53.094;6.072;2022-08-20T04:12:29;101677.06;;;18.58;78.64
44920;BME280;30655;53.094;6.072;2022-08-20T04:15:16;101510.66;;;17.44;78.56
44920;BME280;30655;53.094;6.072;2022-08-20T04:18:40;101509.50;;;17.31;78.85
44920;BME280;30655;53.094;6.072;2022-08-20T04:21:46;101607.56;;;17.89;79.14
44920;BME280;30655;53.094;6.072;2022-08-20T04:24:39;101683.69;;;18.19;79.75
44920;BME280;30655;53.094;6.072;2022-08-20T04:27:25;101648.03;;;17.92;79.95
44920;BME280;30655;53.094;6.072;2022-08-20T04:30:16;101580.66;;;17.58;80.18
44920;BME280;30655;53.094;6.072;2022-08-20T04:33:05;101598.16;;;17.62;80.28
44920;BME280;30655;53.094;6.072;2022-08-20T04:45:52;101691.09;;;18.00;80.74
44920;BME280;30655;53.094;6.072;2022-08-20T04:51:40;101506.50;;;16.71;81.02
44920;BME280;30655;53.094;6.072;2022-08-20T04:55:33;101510.47;;;16.60;81.53
44920;BME280;30655;53.094;6.072;2022-08-20T05:07:48;101716.31;;;17.54;83.20
44920;BME280;30655;53.094;6.072;2022-08-20T05:10:22;101582.34;;;16.74;83.33
44920;BME280;30655;53.094;6.072;2022-08-20T05:13:23;101531.78;;;16.29;83.69
44920;BME280;30655;53.094;6.072;2022-08-20T05:16:16;101552.13;;;16.42;84.09
44920;BME280;30655;53.094;6.072;2022-08-20T05:19:33;101714.38;;;17.36;84.43
44920;BME280;30655;53.094;6.072;2022-08-20T05:22:36;101712.75;;;17.35;84.45
44920;BME280;30655;53.094;6.072;2022-08-20T05:25:17;101719.31;;;17.34;84.58
44920;BME280;30655;53.094;6.072;2022-08-20T05:28:26;101510.66;;;16.16;84.40
44920;BME280;30655;53.094;6.072;2022-08-20T05:31:47;101702.97;;;17.29;84.48
44920;BME280;30655;53.094;6.072;2022-08-20T05:34:35;101667.69;;;17.09;84.73
44920;BME280;30655;53.094;6.072;2022-08-20T05:37:44;101713.91;;;17.29;84.92
44920;BME280;30655;53.094;6.072;2022-08-20T05:43:55;101717.44;;;17.30;85.31
44920;BME280;30655;53.094;6.072;2022-08-20T05:53:46;101685.59;;;17.20;85.01
44920;BME280;30655;53.094;6.072;2022-08-20T05:56:32;101578.72;;;16.55;84.86
44920;BME280;30655;53.094;6.072;2022-08-20T05:59:27;101540.41;;;16.42;84.68
44920;BME280;30655;53.094;6.072;2022-08-20T06:02:16;101732.16;;;17.57;84.73
44920;BME280;30655;53.094;6.072;2022-08-20T06:11:16;101731.75;;;17.69;83.96
44920;BME280;30655;53.094;6.072;2022-08-20T06:20:56;101566.56;;;16.71;83.08
44920;BME280;30655;53.094;6.072;2022-08-20T06:24:10;101636.94;;;17.22;82.97
44920;BME280;30655;53.094;6.072;2022-08-20T06:27:30;101565.84;;;16.85;82.81
44920;BME280;30655;53.094;6.072;2022-08-20T06:30:32;101665.97;;;17.60;82.45
44920;BME280;30655;53.094;6.072;2022-08-20T06:33:19;101566.19;;;17.02;81.88
44920;BME280;30655;53.094;6.072;2022-08-20T06:36:45;101743.97;;;18.14;81.50
44920;BME280;30655;53.094;6.072;2022-08-20T06:39:14;101632.19;;;17.51;81.12
44920;BME280;30655;53.094;6.072;2022-08-20T06:41:48;101558.97;;;17.11;80.56
44920;BME280;30655;53.094;6.072;2022-08-20T06:44:35;101727.31;;;18.29;80.63
44920;BME280;30655;53.094;6.072;2022-08-20T06:47:05;101730.56;;;18.31;80.29
44920;BME280;30655;53.094;6.072;2022-08-20T06:50:24;101623.50;;;17.68;79.78
44920;BME280;30655;53.094;6.072;2022-08-20T06:53:26;101743.81;;;18.43;79.54
44920;BME280;30655;53.094;6.072;2022-08-20T06:56:04;101644.53;;;17.86;78.58
44920;BME280;30655;53.094;6.072;2022-08-20T06:58:52;101741.19;;;18.52;78.38
44920;BME280;30655;53.094;6.072;2022-08-20T07:01:49;101752.09;;;18.57;77.74
44920;BME280;30655;53.094;6.072;2022-08-20T07:04:16;101667.59;;;18.18;77.57
44920;BME280;30655;53.094;6.072;2022-08-20T07:09:44;101710.56;;;18.49;77.44
44920;BME280;30655;53.094;6.072;2022-08-20T07:12:38;101582.19;;;17.70;76.11
44920;BME280;30655;53.094;6.072;2022-08-20T07:15:27;101735.16;;;18.68;75.94
44920;BME280;30655;53.094;6.072;2022-08-20T07:18:20;101577.16;;;17.77;74.95
44920;BME280;30655;53.094;6.072;2022-08-20T07:24:05;101656.16;;;18.29;74.59
44920;BME280;30655;53.094;6.072;2022-08-20T07:27:15;101761.53;;;18.97;72.50
44920;BME280;30655;53.094;6.072;2022-08-20T07:29:52;101714.50;;;18.76;71.74
44920;BME280;30655;53.094;6.072;2022-08-20T07:32:52;101718.19;;;18.85;71.31
44920;BME280;30655;53.094;6.072;2022-08-20T07:35:36;101769.38;;;19.17;70.74
44920;BME280;30655;53.094;6.072;2022-08-20T07:38:40;101768.97;;;19.23;70.74
44920;BME280;30655;53.094;6.072;2022-08-20T07:41:28;101683.38;;;18.72;70.16
44920;BME280;30655;53.094;6.072;2022-08-20T07:44:30;101759.22;;;19.31;69.21
44920;BME280;30655;53.094;6.072;2022-08-20T07:47:16;101765.72;;;19.35;69.66
44920;BME280;30655;53.094;6.072;2022-08-20T07:49:51;101765.81;;;19.44;69.64
44920;BME280;30655;53.094;6.072;2022-08-20T07:52:30;101608.78;;;18.47;68.90
44920;BME280;30655;53.094;6.072;2022-08-20T07:55:01;101740.75;;;19.37;68.14
44920;BME280;30655;53.094;6.072;2022-08-20T07:57:54;101767.47;;;19.58;68.38
44920;BME280;30655;53.094;6.072;2022-08-20T08:00:44;101736.69;;;19.48;67.60
44920;BME280;30655;53.094;6.072;2022-08-20T08:03:18;101600.88;;;18.60;68.10
44920;BME280;30655;53.094;6.072;2022-08-20T08:06:12;101768.97;;;19.78;67.35
44920;BME280;30655;53.094;6.072;2022-08-20T08:09:29;101613.06;;;18.81;66.02
44920;BME280;30655;53.094;6.072;2022-08-20T08:12:38;101766.13;;;19.83;66.41
44920;BME280;30655;53.094;6.072;2022-08-20T08:15:32;101759.63;;;19.79;65.52
44920;BME280;30655;53.094;6.072;2022-08-20T08:21:57;101737.38;;;19.81;65.46
44920;BME280;30655;53.094;6.072;2022-08-20T08:24:41;101637.41;;;19.23;64.17
44920;BME280;30655;53.094;6.072;2022-08-20T08:27:26;101664.19;;;19.54;65.01
44920;BME280;30655;53.094;6.072;2022-08-20T08:29:58;101765.84;;;20.20;65.18
44920;BME280;30655;53.094;6.072;2022-08-20T08:32:34;101766.22;;;20.28;64.65
44920;BME280;30655;53.094;6.072;2022-08-20T08:35:14;101760.63;;;20.33;64.74
44920;BME280;30655;53.094;6.072;2022-08-20T08:38:01;101753.25;;;20.19;64.33
44920;BME280;30655;53.094;6.072;2022-08-20T08:40:32;101687.91;;;19.86;64.08
44920;BME280;30655;53.094;6.072;2022-08-20T08:43:13;101771.75;;;20.50;62.68
44920;BME280;30655;53.094;6.072;2022-08-20T08:46:06;101615.28;;;19.47;62.54
44920;BME280;30655;53.094;6.072;2022-08-20T08:48:58;101792.97;;;20.58;61.83
44920;BME280;30655;53.094;6.072;2022-08-20T08:51:46;101752.97;;;20.43;61.92
44920;BME280;30655;53.094;6.072;2022-08-20T08:54:43;101613.59;;;19.60;60.41
44920;BME280;30655;53.094;6.072;2022-08-20T08:59:07;101788.25;;;20.72;60.92
44920;BME280;30655;53.094;6.072;2022-08-20T09:00:51;101788.44;;;20.76;60.67
44920;BME280;30655;53.094;6.072;2022-08-20T09:03:32;101596.75;;;19.53;59.86
44920;BME280;30655;53.094;6.072;2022-08-20T09:06:21;101705.34;;;20.26;60.33
44920;BME280;30655;53.094;6.072;2022-08-20T09:09:03;101753.16;;;20.69;59.88
44920;BME280;30655;53.094;6.072;2022-08-20T09:11:46;101716.28;;;20.39;58.69
44920;BME280;30655;53.094;6.072;2022-08-20T09:14:24;101723.44;;;20.49;57.65
44920;BME280;30655;53.094;6.072;2022-08-20T09:16:55;101638.19;;;20.09;58.35
44920;BME280;30655;53.094;6.072;2022-08-20T09:29:43;101805.50;;;21.48;57.12
44920;BME280;30655;53.094;6.072;2022-08-20T09:32:22;101712.94;;;21.04;57.60
44920;BME280;30655;53.094;6.072;2022-08-20T09:35:02;101702.09;;;21.08;57.28
44920;BME280;30655;53.094;6.072;2022-08-20T09:37:45;101798.31;;;21.78;56.80
44920;BME280;30655;53.094;6.072;2022-08-20T09:40:29;101654.47;;;21.21;55.26
44920;BME280;30655;53.094;6.072;2022-08-20T09:43:02;101753.69;;;22.50;57.81
44920;BME280;30655;53.094;6.072;2022-08-20T09:49:37;101788.41;;;24.40;50.77
44920;BME280;30655;53.094;6.072;2022-08-20T09:52:23;101774.13;;;25.04;52.64
44920;BME280;30655;53.094;6.072;2022-08-20T09:58:13;101744.97;;;26.32;47.42
44920;BME280;30655;53.094;6.072;2022-08-20T10:00:43;101785.56;;;26.95;47.08
44920;BME280;30655;53.094;6.072;2022-08-20T10:03:09;101787.56;;;27.42;45.60
44920;BME280;30655;53.094;6.072;2022-08-20T10:05:38;101785.16;;;27.72;43.84
44920;BME280;30655;53.094;6.072;2022-08-20T10:08:05;101776.91;;;27.60;42.68
44920;BME280;30655;53.094;6.072;2022-08-20T10:10:32;101776.22;;;27.63;42.48
44920;BME280;30655;53.094;6.072;2022-08-20T10:12:59;101775.03;;;27.17;42.37
44920;BME280;30655;53.094;6.072;2022-08-20T10:15:26;101784.69;;;26.64;42.43
44920;BME280;30655;53.094;6.072;2022-08-20T10:17:54;101795.94;;;25.91;42.84
44920;BME280;30655;53.094;6.072;2022-08-20T10:20:22;101800.44;;;25.47;43.50
44920;BME280;30655;53.094;6.072;2022-08-20T10:22:51;101792.78;;;24.95;44.55
44920;BME280;30655;53.094;6.072;2022-08-20T10:25:18;101798.19;;;24.71;45.58
44920;BME280;30655;53.094;6.072;2022-08-20T10:27:45;101789.09;;;25.03;45.53
44920;BME280;30655;53.094;6.072;2022-08-20T10:30:12;101794.97;;;25.59;44.61
44920;BME280;30655;53.094;6.072;2022-08-20T10:32:39;101775.50;;;25.95;43.52
44920;BME280;30655;53.094;6.072;2022-08-20T10:35:06;101774.59;;;26.71;43.00
44920;BME280;30655;53.094;6.072;2022-08-20T10:37:33;101774.50;;;27.27;41.11
44920;BME280;30655;53.094;6.072;2022-08-20T10:40:02;101762.16;;;27.24;39.02
44920;BME280;30655;53.094;6.072;2022-08-20T10:42:29;101791.06;;;27.08;38.55
44920;BME280;30655;53.094;6.072;2022-08-20T10:44:56;101787.50;;;26.51;39.42
44920;BME280;30655;53.094;6.072;2022-08-20T10:47:24;101785.22;;;26.01;39.87
44920;BME280;30655;53.094;6.072;2022-08-20T10:49:59;101794.25;;;25.62;40.31
44920;BME280;30655;53.094;6.072;2022-08-20T10:52:28;101768.81;;;25.11;41.30
44920;BME280;30655;53.094;6.072;2022-08-20T10:54:55;101792.47;;;25.09;42.22
44920;BME280;30655;53.094;6.072;2022-08-20T10:57:25;101778.75;;;24.79;42.25
44920;BME280;30655;53.094;6.072;2022-08-20T10:59:55;101795.38;;;24.59;42.37
44920;BME280;30655;53.094;6.072;2022-08-20T11:02:23;101791.16;;;24.40;42.74
44920;BME280;30655;53.094;6.072;2022-08-20T11:04:50;101790.69;;;24.18;43.17
44920;BME280;30655;53.094;6.072;2022-08-20T11:07:30;101763.22;;;23.92;43.88
44920;BME280;30655;53.094;6.072;2022-08-20T11:10:21;101726.91;;;24.43;44.28
44920;BME280;30655;53.094;6.072;2022-08-20T11:13:06;101710.72;;;25.36;44.70
44920;BME280;30655;53.094;6.072;2022-08-20T11:15:38;101657.84;;;25.89;41.68
44920;BME280;30655;53.094;6.072;2022-08-20T11:18:12;101786.06;;;27.60;40.13
44920;BME280;30655;53.094;6.072;2022-08-20T11:20:44;101720.63;;;27.98;39.20
44920;BME280;30655;53.094;6.072;2022-08-20T11:23:22;101727.56;;;28.65;38.32
44920;BME280;30655;53.094;6.072;2022-08-20T11:25:52;101654.09;;;28.89;37.67
44920;BME280;30655;53.094;6.072;2022-08-20T11:28:37;101693.31;;;29.85;35.68
44920;BME280;30655;53.094;6.072;2022-08-20T11:31:07;101733.75;;;30.65;34.21
44920;BME280;30655;53.094;6.072;2022-08-20T11:33:44;101752.38;;;30.95;32.96
44920;BME280;30655;53.094;6.072;2022-08-20T11:36:21;101681.44;;;30.55;32.30
44920;BME280;30655;53.094;6.072;2022-08-20T11:39:01;101660.88;;;30.33;30.55
44920;BME280;30655;53.094;6.072;2022-08-20T11:41:35;101796.69;;;31.40;31.72
44920;BME280;30655;53.094;6.072;2022-08-20T11:44:16;101797.22;;;31.09;28.40
44920;BME280;30655;53.094;6.072;2022-08-20T11:46:51;101797.34;;;31.67;31.78
44920;BME280;30655;53.094;6.072;2022-08-20T11:52:28;101797.66;;;32.24;30.70
44920;BME280;30655;53.094;6.072;2022-08-20T11:54:57;101731.25;;;32.10;29.73
44920;BME280;30655;53.094;6.072;2022-08-20T11:57:43;101794.16;;;32.41;27.82
44920;BME280;30655;53.094;6.072;2022-08-20T12:00:32;101747.28;;;31.51;27.80
44920;BME280;30655;53.094;6.072;2022-08-20T12:03:03;101775.03;;;30.86;29.54
44920;BME280;30655;53.094;6.072;2022-08-20T12:05:38;101776.25;;;30.52;29.77
44920;BME280;30655;53.094;6.072;2022-08-20T12:08:05;101649.97;;;29.88;29.48
44920;BME280;30655;53.094;6.072;2022-08-20T12:10:33;101648.38;;;30.24;29.30
44920;BME280;30655;53.094;6.072;2022-08-20T12:13:18;101721.06;;;30.71;28.06
44920;BME280;30655;53.094;6.072;2022-08-20T12:15:52;101797.97;;;30.69;29.95
44920;BME280;30655;53.094;6.072;2022-08-20T12:18:19;101789.34;;;29.88;30.42
44920;BME280;30655;53.094;6.072;2022-08-20T12:20:52;101800.72;;;29.30;30.57
44920;BME280;30655;53.094;6.072;2022-08-20T12:23:19;101790.72;;;29.03;31.25
44920;BME280;30655;53.094;6.072;2022-08-20T12:25:46;101800.50;;;29.39;30.97
44920;BME280;30655;53.094;6.072;2022-08-20T12:28:12;101778.94;;;29.59;31.01
44920;BME280;30655;53.094;6.072;2022-08-20T12:30:39;101811.81;;;29.99;30.81
44920;BME280;30655;53.094;6.072;2022-08-20T12:33:07;101811.97;;;29.60;30.88
44920;BME280;30655;53.094;6.072;2022-08-20T12:35:35;101804.47;;;28.96;31.21
44920;BME280;30655;53.094;6.072;2022-08-20T12:38:04;101804.94;;;28.40;32.09
44920;BME280;30655;53.094;6.072;2022-08-20T12:40:31;101795.22;;;27.96;32.54
44920;BME280;30655;53.094;6.072;2022-08-20T12:42:59;101805.59;;;27.64;32.85
44920;BME280;30655;53.094;6.072;2022-08-20T12:45:26;101806.47;;;27.68;33.66
44920;BME280;30655;53.094;6.072;2022-08-20T12:47:59;101814.09;;;28.06;34.26
44920;BME280;30655;53.094;6.072;2022-08-20T12:50:29;101775.06;;;27.99;33.88
44920;BME280;30655;53.094;6.072;2022-08-20T12:52:57;101749.63;;;28.16;33.30
44920;BME280;30655;53.094;6.072;2022-08-20T12:55:25;101801.69;;;28.73;33.13
44920;BME280;30655;53.094;6.072;2022-08-20T12:57:54;101812.00;;;28.73;33.53
44920;BME280;30655;53.094;6.072;2022-08-20T13:00:27;101774.22;;;28.52;32.53
44920;BME280;30655;53.094;6.072;2022-08-20T13:02:56;101810.66;;;28.66;33.33
44920;BME280;30655;53.094;6.072;2022-08-20T13:05:26;101775.34;;;28.71;33.39
44920;BME280;30655;53.094;6.072;2022-08-20T13:07:54;101804.38;;;28.89;32.85
44920;BME280;30655;53.094;6.072;2022-08-20T13:10:25;101807.81;;;29.05;32.15
44920;BME280;30655;53.094;6.072;2022-08-20T13:13:02;101623.38;;;28.17;32.29
44920;BME280;30655;53.094;6.072;2022-08-20T13:15:57;101740.28;;;29.08;31.56
44920;BME280;30655;53.094;6.072;2022-08-20T13:18:43;101720.97;;;28.96;31.01
44920;BME280;30655;53.094;6.072;2022-08-20T13:22:37;101605.94;;;28.20;30.78
44920;BME280;30655;53.094;6.072;2022-08-20T13:25:28;101782.97;;;28.93;30.83
44920;BME280;30655;53.094;6.072;2022-08-20T13:28:31;101702.81;;;28.18;31.47
44920;BME280;30655;53.094;6.072;2022-08-20T13:31:06;101750.91;;;28.80;32.61
44920;BME280;30655;53.094;6.072;2022-08-20T13:33:39;101774.41;;;29.05;31.69
44920;BME280;30655;53.094;6.072;2022-08-20T13:36:07;101698.41;;;28.36;31.84
44920;BME280;30655;53.094;6.072;2022-08-20T13:38:36;101724.16;;;28.52;32.15
44920;BME280;30655;53.094;6.072;2022-08-20T13:41:04;101655.69;;;28.06;31.95
44920;BME280;30655;53.094;6.072;2022-08-20T13:43:31;101718.69;;;28.17;32.22
44920;BME280;30655;53.094;6.072;2022-08-20T13:45:58;101781.50;;;28.60;32.15
44920;BME280;30655;53.094;6.072;2022-08-20T13:48:25;101770.13;;;28.46;32.14
44920;BME280;30655;53.094;6.072;2022-08-20T13:50:52;101783.88;;;28.58;32.36
44920;BME280;30655;53.094;6.072;2022-08-20T13:53:21;101667.69;;;27.91;33.25
44920;BME280;30655;53.094;6.072;2022-08-20T13:55:48;101683.72;;;28.16;33.59
44920;BME280;30655;53.094;6.072;2022-08-20T13:58:22;101776.34;;;29.01;32.15
44920;BME280;30655;53.094;6.072;2022-08-20T14:00:52;101780.78;;;28.83;32.29
44920;BME280;30655;53.094;6.072;2022-08-20T14:03:20;101755.13;;;28.93;32.21
44920;BME280;30655;53.094;6.072;2022-08-20T14:05:51;101783.97;;;29.04;32.47
44920;BME280;30655;53.094;6.072;2022-08-20T14:08:20;101644.34;;;28.34;32.02
44920;BME280;30655;53.094;6.072;2022-08-20T14:10:50;101755.31;;;29.26;32.48
44920;BME280;30655;53.094;6.072;2022-08-20T14:13:21;101778.19;;;29.62;32.42
44920;BME280;30655;53.094;6.072;2022-08-20T14:15:48;101643.81;;;28.93;32.13
44920;BME280;30655;53.094;6.072;2022-08-20T14:18:23;101618.44;;;28.98;31.84
44920;BME280;30655;53.094;6.072;2022-08-20T14:20:52;101772.25;;;30.19;32.12
44920;BME280;30655;53.094;6.072;2022-08-20T14:23:24;101712.22;;;29.99;31.71
44920;BME280;30655;53.094;6.072;2022-08-20T14:25:52;101679.38;;;29.85;30.87
44920;BME280;30655;53.094;6.072;2022-08-20T14:28:22;101754.13;;;30.36;30.20
44920;BME280;30655;53.094;6.072;2022-08-20T14:30:50;101731.41;;;30.04;31.13
44920;BME280;30655;53.094;6.072;2022-08-20T14:33:21;101731.31;;;29.93;31.29
44920;BME280;30655;53.094;6.072;2022-08-20T14:35:50;101677.09;;;29.35;31.62
44920;BME280;30655;53.094;6.072;2022-08-20T14:38:17;101665.81;;;29.01;32.01
44920;BME280;30655;53.094;6.072;2022-08-20T14:40:44;101686.31;;;28.71;32.32
44920;BME280;30655;53.094;6.072;2022-08-20T14:43:13;101609.72;;;27.89;32.94
44920;BME280;30655;53.094;6.072;2022-08-20T14:45:42;101771.84;;;28.54;33.74
44920;BME280;30655;53.094;6.072;2022-08-20T14:48:11;101782.09;;;28.12;33.93
44920;BME280;30655;53.094;6.072;2022-08-20T14:50:39;101732.28;;;27.68;34.45
44920;BME280;30655;53.094;6.072;2022-08-20T14:53:07;101758.38;;;27.64;35.41
44920;BME280;30655;53.094;6.072;2022-08-20T14:55:54;101638.41;;;26.61;35.49
44920;BME280;30655;53.094;6.072;2022-08-20T14:58:38;101771.72;;;27.42;35.62
44920;BME280;30655;53.094;6.072;2022-08-20T15:11:03;101700.97;;;27.52;35.90
44920;BME280;30655;53.094;6.072;2022-08-20T15:20:57;101733.19;;;27.92;34.39
44920;BME280;30655;53.094;6.072;2022-08-20T15:23:38;101584.50;;;26.74;34.58
44920;BME280;30655;53.094;6.072;2022-08-20T15:26:19;101732.03;;;27.42;34.75
44920;BME280;30655;53.094;6.072;2022-08-20T15:33:05;101596.31;;;26.11;36.80
44920;BME280;30655;53.094;6.072;2022-08-20T15:35:32;101634.81;;;26.29;36.27
44920;BME280;30655;53.094;6.072;2022-08-20T15:37:59;101747.13;;;26.82;36.60
44920;BME280;30655;53.094;6.072;2022-08-20T15:40:29;101614.25;;;26.02;36.98
44920;BME280;30655;53.094;6.072;2022-08-20T15:43:02;101685.19;;;26.46;36.88
44920;BME280;30655;53.094;6.072;2022-08-20T15:45:36;101725.75;;;26.82;37.36
44920;BME280;30655;53.094;6.072;2022-08-20T15:48:09;101726.22;;;26.84;37.33
44920;BME280;30655;53.094;6.072;2022-08-20T15:50:49;101756.88;;;27.04;37.79
44920;BME280;30655;53.094;6.072;2022-08-20T15:53:28;101767.88;;;27.16;37.88
44920;BME280;30655;53.094;6.072;2022-08-20T15:56:03;101760.53;;;27.39;37.79
44920;BME280;30655;53.094;6.072;2022-08-20T15:58:45;101751.00;;;27.71;36.61
44920;BME280;30655;53.094;6.072;2022-08-20T16:01:21;101687.91;;;27.21;36.21
44920;BME280;30655;53.094;6.072;2022-08-20T16:04:07;101759.53;;;27.31;37.30
44920;BME280;30655;53.094;6.072;2022-08-20T16:06:37;101755.13;;;26.83;37.81
44920;BME280;30655;53.094;6.072;2022-08-20T16:12:07;101761.50;;;26.16;39.51
44920;BME280;30655;53.094;6.072;2022-08-20T16:14:40;101768.09;;;26.11;39.06
44920;BME280;30655;53.094;6.072;2022-08-20T16:17:11;101767.47;;;26.30;40.20
44920;BME280;30655;53.094;6.072;2022-08-20T16:19:47;101768.56;;;26.53;39.84
44920;BME280;30655;53.094;6.072;2022-08-20T16:22:18;101774.97;;;26.85;39.48
44920;BME280;30655;53.094;6.072;2022-08-20T16:24:44;101772.38;;;27.05;39.89
44920;BME280;30655;53.094;6.072;2022-08-20T16:27:17;101754.44;;;27.02;39.61
44920;BME280;30655;53.094;6.072;2022-08-20T16:29:55;101761.53;;;27.00;40.34
44920;BME280;30655;53.094;6.072;2022-08-20T16:32:32;101771.81;;;26.99;40.75
44920;BME280;30655;53.094;6.072;2022-08-20T16:35:09;101784.06;;;26.70;41.13
44920;BME280;30655;53.094;6.072;2022-08-20T16:37:44;101780.84;;;26.40;41.83
44920;BME280;30655;53.094;6.072;2022-08-20T16:40:22;101777.78;;;26.18;43.35
44920;BME280;30655;53.094;6.072;2022-08-20T16:42:52;101756.69;;;26.01;43.20
44920;BME280;30655;53.094;6.072;2022-08-20T16:45:25;101778.19;;;26.04;43.72
44920;BME280;30655;53.094;6.072;2022-08-20T16:47:58;101634.66;;;24.93;43.72
44920;BME280;30655;53.094;6.072;2022-08-20T16:50:30;101764.72;;;25.54;43.65
44920;BME280;30655;53.094;6.072;2022-08-20T16:53:01;101784.66;;;25.47;44.24
44920;BME280;30655;53.094;6.072;2022-08-20T16:55:28;101787.88;;;25.37;44.32
44920;BME280;30655;53.094;6.072;2022-08-20T16:57:55;101776.00;;;25.24;44.81
44920;BME280;30655;53.094;6.072;2022-08-20T17:00:28;101800.44;;;25.10;44.14
44920;BME280;30655;53.094;6.072;2022-08-20T17:02:57;101764.34;;;24.86;44.30
44920;BME280;30655;53.094;6.072;2022-08-20T17:05:28;101793.22;;;24.97;44.08
44920;BME280;30655;53.094;6.072;2022-08-20T17:07:59;101789.00;;;24.79;44.36
44920;BME280;30655;53.094;6.072;2022-08-20T17:10:29;101798.66;;;24.73;44.35
44920;BME280;30655;53.094;6.072;2022-08-20T17:12:58;101793.88;;;24.61;44.49